Time;durP1;ratioP1;P1;durP2;ratioP2;P2;SDS_P1;SDS_P2;PMS_P1;PMS_P2;Temp;Humidity;BMP_temperature;BMP_pressure;BME280_temperature;BME280_humidity;BME280_pressure;Samples;Min_cycle;Max_cycle;Signal;HPM_P1;HPM_P2
2022/11/22 00:00:56;;;;;;;4.65;2.65;;;;;;;7.36;77.01;98629.78;4181403;28;20041;-62
2022/11/22 00:02:59;;;;;;;5.75;2.92;;;;;;;7.32;77.14;98627.22;4179367;28;20071;-62
2022/11/22 00:05:02;;;;;;;7.95;3.53;;;;;;;7.36;77.11;98619.44;4177646;28;20033;-62
2022/11/22 00:07:05;;;;;;;8.90;3.90;;;;;;;7.39;77.42;98622.03;4184507;28;20036;-62
2022/11/22 00:09:08;;;;;;;9.20;3.38;;;;;;;7.42;76.85;98609.13;4186419;28;20137;-62
2022/11/22 00:11:12;;;;;;;6.60;2.55;;;;;;;7.44;76.51;98612.53;4180777;28;20059;-62
2022/11/22 00:13:15;;;;;;;8.30;3.42;;;;;;;7.32;77.24;98613.44;4185705;28;20123;-62
2022/11/22 00:15:18;;;;;;;7.53;3.20;;;;;;;7.27;77.22;98605.72;4179343;28;20064;-62
2022/11/22 00:17:21;;;;;;;8.77;3.28;;;;;;;7.32;77.10;98603.94;4180590;28;20048;-62
2022/11/22 00:19:24;;;;;;;5.60;2.95;;;;;;;7.29;77.32;98606.56;4182591;28;20083;-62
2022/11/22 00:21:27;;;;;;;9.60;3.20;;;;;;;7.42;77.04;98597.03;4181520;28;20539;-62
2022/11/22 00:23:30;;;;;;;8.68;3.67;;;;;;;7.42;77.21;98602.22;4185713;28;20115;-62
2022/11/22 00:25:32;;;;;;;10.20;3.20;;;;;;;7.36;77.43;98598.78;4188151;28;20044;-62
2022/11/22 00:27:37;;;;;;;9.00;3.60;;;;;;;7.35;77.41;98603.09;4186131;28;20040;-62
2022/11/22 00:29:39;;;;;;;8.63;3.05;;;;;;;7.46;77.05;98595.28;4183918;28;20398;-62
2022/11/22 00:31:42;;;;;;;6.90;3.30;;;;;;;7.38;77.63;98597.06;4184297;28;20116;-62
2022/11/22 00:33:45;;;;;;;9.68;3.80;;;;;;;7.49;77.22;98591.00;4179348;28;20047;-62
2022/11/22 00:35:48;;;;;;;8.23;3.75;;;;;;;7.44;77.58;98591.88;4187846;28;20043;-63
2022/11/22 00:37:51;;;;;;;15.68;7.28;;;;;;;7.46;77.16;98596.16;4179781;28;20051;-63
2022/11/22 00:39:54;;;;;;;18.30;7.95;;;;;;;7.40;77.53;98598.75;4187894;28;20094;-63
2022/11/22 00:41:56;;;;;;;12.70;4.72;;;;;;;7.41;77.92;98604.81;4186268;28;20036;-62
2022/11/22 00:44:01;;;;;;;9.15;3.60;;;;;;;7.40;77.95;98593.59;4187293;28;20095;-62
2022/11/22 00:46:04;;;;;;;8.93;3.70;;;;;;;7.41;77.96;98591.88;4185703;28;20117;-63
2022/11/22 00:48:07;;;;;;;8.93;4.03;;;;;;;7.36;78.09;98594.47;4180546;28;20475;-62
2022/11/22 00:50:10;;;;;;;14.00;4.40;;;;;;;7.44;78.22;98594.44;4180311;28;20052;-62
2022/11/22 00:52:13;;;;;;;10.60;4.28;;;;;;;7.47;78.01;98591.84;4180000;28;20090;-62
2022/11/22 00:54:16;;;;;;;7.00;3.50;;;;;;;7.50;78.03;98594.41;4184808;28;20525;-62
2022/11/22 00:56:19;;;;;;;6.93;3.55;;;;;;;7.45;77.60;98588.44;4179006;28;20040;-62
2022/11/22 00:58:22;;;;;;;9.02;3.45;;;;;;;7.43;78.69;98603.06;4177993;28;20119;-62
2022/11/22 01:00:26;;;;;;;9.18;3.20;;;;;;;7.41;78.32;98622.91;4177745;28;20037;-62
2022/11/22 01:02:29;;;;;;;6.13;2.85;;;;;;;7.47;78.55;98625.47;4177392;28;20040;-63
2022/11/22 01:04:31;;;;;;;11.27;4.03;;;;;;;7.45;78.69;98628.06;4177300;28;20045;-62
2022/11/22 01:06:34;;;;;;;10.02;3.95;;;;;;;7.46;78.62;98631.47;4184817;28;20126;-62
2022/11/22 01:08:37;;;;;;;9.80;4.40;;;;;;;7.46;78.55;98634.94;4182815;28;20032;-62
2022/11/22 01:10:40;;;;;;;6.97;2.90;;;;;;;7.53;78.61;98640.94;4193429;28;20529;-62
2022/11/22 01:12:43;;;;;;;8.48;4.88;;;;;;;7.49;78.01;98626.31;4191808;28;20086;-62
2022/11/22 01:14:45;;;;;;;8.57;3.80;;;;;;;7.46;78.34;98631.47;4188845;28;20051;-62
2022/11/22 01:16:50;;;;;;;8.50;3.22;;;;;;;7.47;78.37;98636.66;4178974;28;20503;-63
2022/11/22 01:18:53;;;;;;;6.80;2.63;;;;;;;7.46;78.53;98637.53;4179180;28;20041;-63
2022/11/22 01:20:55;;;;;;;14.13;3.78;;;;;;;7.59;78.18;98638.34;4180413;28;20517;-63
2022/11/22 01:22:58;;;;;;;7.30;3.30;;;;;;;7.53;78.63;98637.50;4180277;28;20041;-63
2022/11/22 01:25:01;;;;;;;11.23;3.35;;;;;;;7.52;78.65;98641.84;4194652;28;20048;-63
2022/11/22 01:27:04;;;;;;;11.43;3.83;;;;;;;7.60;78.46;98644.38;4170722;28;20087;-62
2022/11/22 01:29:07;;;;;;;9.98;4.35;;;;;;;7.56;78.89;98650.44;4193650;28;20045;-62
2022/11/22 01:31:10;;;;;;;10.80;3.53;;;;;;;7.67;78.90;98644.34;4195579;28;20233;-62
2022/11/22 01:33:14;;;;;;;9.32;3.08;;;;;;;7.66;78.66;98644.38;4186533;28;20037;-62
2022/11/22 01:35:16;;;;;;;6.65;3.33;;;;;;;7.62;78.94;98642.66;4179736;28;20064;-62
2022/11/22 01:37:19;;;;;;;9.52;4.00;;;;;;;7.69;79.13;98641.75;4185084;28;20535;-63
2022/11/22 01:39:22;;;;;;;8.73;3.65;;;;;;;7.72;78.65;98646.91;4191787;28;20102;-62
2022/11/22 01:41:25;;;;;;;5.75;3.55;;;;;;;7.81;78.57;98649.50;4192000;28;20580;-62
2022/11/22 01:43:29;;;;;;;7.05;3.55;;;;;;;7.68;78.89;98647.78;4193549;28;20055;-63
2022/11/22 01:45:42;;;;;;;7.97;3.70;;;;;;;7.61;78.88;98646.13;4195650;28;20064;-63
2022/11/22 01:47:45;;;;;;;8.00;3.67;;;;;;;7.60;79.09;98653.00;4188630;28;20052;-63
2022/11/22 01:49:54;;;;;;;10.18;4.30;;;;;;;7.60;79.45;98654.72;4180180;28;20045;-62
2022/11/22 01:52:02;;;;;;;8.75;3.33;;;;;;;7.65;79.60;98660.72;4189389;28;20051;-62
2022/11/22 01:54:10;;;;;;;9.80;3.92;;;;;;;7.67;79.52;98646.94;4184752;28;20041;-62
2022/11/22 01:56:16;;;;;;;9.88;4.63;;;;;;;7.65;79.40;98648.69;4188812;28;20469;-62
2022/11/22 01:58:21;;;;;;;8.30;4.18;;;;;;;7.76;79.10;98652.97;4180651;28;20495;-62
2022/11/22 02:00:25;;;;;;;7.25;4.03;;;;;;;7.67;79.08;98662.47;4191105;28;20048;-63
2022/11/22 02:02:28;;;;;;;9.27;4.80;;;;;;;7.78;79.24;98658.97;4180574;28;20474;-63
2022/11/22 02:04:32;;;;;;;11.48;5.05;;;;;;;7.77;78.90;98659.84;4189103;28;20494;-63
2022/11/22 02:06:42;;;;;;;12.57;4.47;;;;;;;7.83;78.90;98672.78;4195410;28;20028;-63
2022/11/22 02:08:52;;;;;;;10.75;4.10;;;;;;;7.69;79.23;98671.09;4179439;28;20595;-62
2022/11/22 02:10:56;;;;;;;10.68;4.90;;;;;;;7.72;79.44;98679.69;4198982;28;20040;-62
2022/11/22 02:12:59;;;;;;;8.35;4.25;;;;;;;7.78;79.20;98671.91;4189432;28;20033;-63
2022/11/22 02:15:03;;;;;;;13.07;4.70;;;;;;;7.76;79.29;98671.06;4185837;28;20033;-63
2022/11/22 02:17:06;;;;;;;8.97;4.57;;;;;;;7.82;79.54;98671.88;4198756;28;20040;-62
2022/11/22 02:19:14;;;;;;;11.82;4.32;;;;;;;7.85;79.28;98665.84;4196307;28;20060;-62
2022/11/22 02:21:17;;;;;;;9.63;4.47;;;;;;;7.88;79.06;98677.91;4182868;28;20407;-63
2022/11/22 02:23:31;;;;;;;9.10;4.20;;;;;;;7.86;79.24;98672.75;4181919;28;20040;-63
2022/11/22 02:25:47;;;;;;;7.20;3.78;;;;;;;7.90;79.34;98673.59;4183045;28;20045;-62
2022/11/22 02:27:50;;;;;;;7.80;4.25;;;;;;;7.89;79.11;98677.06;4188536;28;20063;-63
2022/11/22 02:29:53;;;;;;;7.85;4.15;;;;;;;7.81;79.96;98677.06;4191049;28;20045;-62
2022/11/22 02:31:56;;;;;;;8.20;4.28;;;;;;;7.88;79.71;98686.53;4185934;28;20044;-62
2022/11/22 02:33:59;;;;;;;10.27;4.60;;;;;;;7.87;79.65;98682.25;4181743;28;20036;-63
2022/11/22 02:36:04;;;;;;;8.35;3.83;;;;;;;7.89;79.56;98690.84;4182575;28;20483;-62
2022/11/22 02:38:10;;;;;;;8.20;4.03;;;;;;;7.91;79.69;98685.66;4182476;28;20033;-62
2022/11/22 02:40:16;;;;;;;9.85;4.47;;;;;;;7.98;79.89;98692.53;4185876;28;20476;-63
2022/11/22 02:42:21;;;;;;;12.07;4.50;;;;;;;7.94;79.75;98691.69;4190863;28;20036;-62
2022/11/22 02:44:25;;;;;;;13.10;4.90;;;;;;;8.02;79.71;98691.66;4190894;28;20033;-62
2022/11/22 02:46:28;;;;;;;9.80;4.38;;;;;;;8.05;79.36;98699.41;4197592;28;20119;-62
2022/11/22 02:48:31;;;;;;;9.70;4.20;;;;;;;7.98;79.69;98697.72;4193228;28;20059;-62
2022/11/22 02:50:34;;;;;;;7.95;3.80;;;;;;;7.96;79.63;98696.88;4188946;28;20041;-62
2022/11/22 02:52:37;;;;;;;8.55;3.42;;;;;;;7.96;79.77;98696.88;4182420;28;20450;-63
2022/11/22 02:54:40;;;;;;;11.77;4.05;;;;;;;8.12;79.40;98698.53;4186338;28;20037;-62
2022/11/22 02:56:43;;;;;;;8.75;4.65;;;;;;;7.98;79.65;98698.56;4190341;28;20393;-63
2022/11/22 02:58:47;;;;;;;9.45;4.07;;;;;;;8.00;79.73;98698.56;4191082;28;20405;-63
2022/11/22 03:00:50;;;;;;;11.65;4.10;;;;;;;7.97;80.04;98701.16;4194015;28;20040;-63
2022/11/22 03:02:53;;;;;;;9.93;4.03;;;;;;;7.99;80.19;98700.28;4197071;28;20040;-63
2022/11/22 03:04:55;;;;;;;7.57;3.63;;;;;;;8.01;80.15;98713.22;4193100;28;20103;-63
2022/11/22 03:06:59;;;;;;;10.65;3.47;;;;;;;8.01;80.26;98708.91;4183348;28;20044;-63
2022/11/22 03:09:03;;;;;;;6.65;3.00;;;;;;;7.98;80.04;98708.91;4190332;28;20109;-63
2022/11/22 03:11:05;;;;;;;7.53;3.63;;;;;;;7.91;80.20;98712.38;4182233;28;20402;-63
2022/11/22 03:13:08;;;;;;;7.88;3.70;;;;;;;7.91;80.42;98717.56;4181789;28;20498;-63
2022/11/22 03:15:12;;;;;;;6.55;3.00;;;;;;;7.90;80.69;98723.63;4183726;28;20044;-63
2022/11/22 03:17:16;;;;;;;8.35;3.50;;;;;;;7.89;80.92;98729.66;4191171;28;20044;-62
2022/11/22 03:19:19;;;;;;;10.07;4.03;;;;;;;7.87;80.90;98726.22;4181912;28;20103;-63
2022/11/22 03:21:22;;;;;;;10.45;4.20;;;;;;;8.00;80.27;98725.31;4180877;28;20064;-63
2022/11/22 03:23:24;;;;;;;7.97;3.83;;;;;;;7.91;80.26;98724.47;4181692;28;20099;-63
2022/11/22 03:25:28;;;;;;;7.40;3.05;;;;;;;7.96;80.50;98715.84;4182000;28;20049;-63
2022/11/22 03:27:30;;;;;;;8.00;3.67;;;;;;;7.96;80.66;98725.34;4184738;28;20028;-63
2022/11/22 03:29:33;;;;;;;7.45;3.78;;;;;;;8.02;80.19;98718.41;4188431;28;20119;-63
2022/11/22 03:31:38;;;;;;;8.60;3.75;;;;;;;7.99;80.46;98723.59;4188719;28;20033;-63
2022/11/22 03:33:40;;;;;;;10.90;3.92;;;;;;;8.07;79.82;98717.53;4182342;28;20044;-63
2022/11/22 03:35:43;;;;;;;11.32;4.30;;;;;;;8.04;79.84;98714.09;4190331;28;20036;-63
2022/11/22 03:37:46;;;;;;;13.23;6.03;;;;;;;8.06;79.75;98721.84;4195000;28;20067;-63
2022/11/22 03:39:49;;;;;;;10.90;4.63;;;;;;;8.01;79.70;98723.56;4192163;28;20032;-63
2022/11/22 03:41:54;;;;;;;10.70;4.07;;;;;;;8.00;79.51;98722.72;4184279;28;20069;-63
2022/11/22 03:43:57;;;;;;;10.68;4.13;;;;;;;7.90;79.97;98736.56;4179465;28;20041;-63
2022/11/22 03:45:59;;;;;;;9.82;4.68;;;;;;;7.87;80.63;98736.56;4188394;28;20049;-63
2022/11/22 03:48:04;;;;;;;13.05;5.47;;;;;;;7.96;80.10;98731.38;4187517;28;20036;-63
2022/11/22 03:50:07;;;;;;;16.73;5.10;;;;;;;8.10;79.71;98723.53;4189682;28;20163;-63
2022/11/22 03:52:11;;;;;;;10.85;3.83;;;;;;;8.01;79.84;98731.34;4185208;28;20457;-63
2022/11/22 03:54:14;;;;;;;11.80;4.40;;;;;;;7.90;80.17;98723.63;4188147;28;20047;-63
2022/11/22 03:56:17;;;;;;;10.82;3.92;;;;;;;7.88;80.10;98732.25;4193959;28;20040;-62
2022/11/22 03:58:20;;;;;;;6.53;3.15;;;;;;;7.86;80.05;98729.66;4184554;28;20041;-63
2022/11/22 04:00:23;;;;;;;12.40;3.90;;;;;;;7.90;80.08;98740.84;4188126;28;20128;-63
2022/11/22 04:02:26;;;;;;;7.38;2.80;;;;;;;7.89;80.35;98742.59;4188903;28;20044;-63
2022/11/22 04:04:30;;;;;;;9.25;3.33;;;;;;;7.90;80.10;98736.56;4191709;28;20036;-62
2022/11/22 04:06:33;;;;;;;8.65;3.30;;;;;;;7.90;79.98;98741.75;4185930;28;20502;-63
2022/11/22 04:08:35;;;;;;;14.90;4.07;;;;;;;7.93;80.17;98752.06;4195521;28;20063;-63
2022/11/22 04:10:38;;;;;;;8.23;3.60;;;;;;;7.93;80.03;98746.91;4194720;28;20040;-63
2022/11/22 04:12:41;;;;;;;12.95;3.22;;;;;;;7.92;79.62;98750.34;4196152;28;20078;-63
2022/11/22 04:17:04;;;;;;;11.93;3.85;;;;;;;7.93;79.80;98753.78;4181066;28;20045;-63
2022/11/22 04:19:07;;;;;;;12.05;2.70;;;;;;;8.03;79.52;98753.78;4181173;28;20037;-63
2022/11/22 04:23:32;;;;;;;19.35;3.28;;;;;;;7.90;79.71;98756.38;4180117;28;20041;-63
2022/11/22 04:25:37;;;;;;;12.30;3.42;;;;;;;7.91;79.43;98756.38;4181097;28;20490;-62
2022/11/22 04:27:40;;;;;;;9.83;2.10;;;;;;;7.86;79.12;98763.31;4180308;28;20499;-63
2022/11/22 04:29:43;;;;;;;12.35;2.88;;;;;;;7.86;79.24;98768.47;4188339;28;20322;-63
2022/11/22 04:34:07;;;;;;;13.90;3.17;;;;;;;7.79;79.53;98769.34;4189924;28;20073;-63
2022/11/22 04:36:11;;;;;;;10.48;2.90;;;;;;;7.77;79.63;98776.22;4184826;28;20044;-63
2022/11/22 04:38:16;;;;;;;14.10;3.35;;;;;;;7.72;79.48;98773.66;4183521;28;20044;-63
2022/11/22 04:40:19;;;;;;;11.17;2.40;;;;;;;7.66;79.30;98768.50;4187954;28;20033;-63
2022/11/22 04:44:43;;;;;;;9.80;2.63;;;;;;;7.47;80.64;98793.53;4189615;28;20040;-63
2022/11/22 04:46:45;;;;;;;9.57;2.50;;;;;;;7.48;80.31;98790.09;4194890;28;20048;-63
2022/11/22 04:48:48;;;;;;;9.75;2.97;;;;;;;7.53;80.14;98783.16;4186034;28;20043;-62
2022/11/22 04:53:13;;;;;;;11.23;2.80;;;;;;;7.58;80.24;98781.44;4185658;28;20083;-63
2022/11/22 04:55:16;;;;;;;21.63;3.55;;;;;;;7.64;80.05;98771.09;4190523;28;20049;-62
2022/11/22 04:57:19;;;;;;;12.73;2.90;;;;;;;7.73;79.66;98774.53;4186609;28;20510;-63
2022/11/22 04:59:22;;;;;;;12.50;3.83;;;;;;;7.80;79.13;98768.50;4194045;28;20036;-63
2022/11/22 05:01:24;;;;;;;10.07;2.47;;;;;;;7.81;78.91;98767.59;4184110;28;20433;-62
2022/11/22 05:03:27;;;;;;;9.20;2.58;;;;;;;7.84;78.80;98768.47;4188591;28;20127;-63
2022/11/22 05:05:30;;;;;;;15.35;3.55;;;;;;;7.81;78.63;98765.03;4180363;28;20037;-63
2022/11/22 05:07:34;;;;;;;10.70;3.38;;;;;;;7.80;78.52;98771.09;4186857;28;20098;-63
2022/11/22 05:09:38;;;;;;;12.13;3.70;;;;;;;7.78;78.48;98777.97;4189317;28;20482;-63
2022/11/22 05:11:41;;;;;;;17.08;3.00;;;;;;;7.79;78.21;98774.53;4183391;28;20090;-63
2022/11/22 05:13:44;;;;;;;12.05;2.85;;;;;;;7.72;78.14;98777.97;4184358;28;20037;-63
2022/11/22 05:15:47;;;;;;;14.50;3.60;;;;;;;7.79;77.84;98784.88;4187815;28;20053;-63
2022/11/22 05:17:49;;;;;;;14.68;2.83;;;;;;;7.74;78.16;98776.25;4187259;28;20033;-63
2022/11/22 05:19:52;;;;;;;21.42;3.25;;;;;;;7.82;77.73;98774.50;4183079;28;20076;-63
2022/11/22 05:21:55;;;;;;;19.58;3.40;;;;;;;7.68;77.57;98787.47;4193666;28;20041;-63
2022/11/22 05:23:57;;;;;;;12.90;2.92;;;;;;;7.56;78.66;98792.66;4192974;28;20123;-63
2022/11/22 05:26:02;;;;;;;11.68;3.58;;;;;;;7.58;78.63;98796.97;4186529;28;20041;-63
2022/11/22 05:28:05;;;;;;;14.10;2.80;;;;;;;7.59;78.68;98790.91;4186320;28;20110;-63
2022/11/22 05:30:08;;;;;;;14.07;3.50;;;;;;;7.60;78.72;98794.38;4185149;28;20556;-63
2022/11/22 05:32:11;;;;;;;9.80;1.95;;;;;;;7.67;78.37;98796.94;4190791;28;20071;-63
2022/11/22 05:34:14;;;;;;;17.92;3.58;;;;;;;7.65;78.35;98802.97;4181610;28;20044;-63
2022/11/22 05:36:17;;;;;;;9.32;3.03;;;;;;;7.62;78.60;98805.56;4190998;28;20051;-62
2022/11/22 05:38:20;;;;;;;14.57;3.30;;;;;;;7.61;78.85;98809.03;4190723;28;20040;-63
2022/11/22 05:40:23;;;;;;;20.90;3.28;;;;;;;7.61;78.47;98807.31;4186144;28;20454;-63
2022/11/22 05:42:28;;;;;;;14.88;3.83;;;;;;;7.65;78.50;98813.31;4187558;28;20036;-63
2022/11/22 05:44:31;;;;;;;14.30;3.65;;;;;;;7.56;78.17;98805.59;4190629;28;20399;-63
2022/11/22 05:46:34;;;;;;;14.82;2.92;;;;;;;7.55;78.20;98809.91;4187034;28;20075;-63
2022/11/22 05:48:38;;;;;;;10.57;2.33;;;;;;;7.65;78.03;98811.63;4190592;28;20124;-63
2022/11/22 05:50:41;;;;;;;15.07;3.42;;;;;;;7.64;78.26;98812.47;4189548;28;20426;-63
2022/11/22 05:52:43;;;;;;;13.35;2.88;;;;;;;7.61;78.13;98812.47;4190799;28;20444;-63
2022/11/22 05:54:46;;;;;;;10.40;2.95;;;;;;;7.50;77.26;98822.84;4192385;28;20044;-62
2022/11/22 05:56:51;;;;;;;15.52;3.13;;;;;;;7.64;77.37;98817.66;4189073;28;20090;-63
2022/11/22 05:58:55;;;;;;;12.50;3.30;;;;;;;7.56;77.05;98832.28;4189616;28;20066;-63
2022/11/22 06:01:03;;;;;;;12.88;2.55;;;;;;;7.60;77.30;98834.03;4188015;28;20417;-63
2022/11/22 06:03:06;;;;;;;15.88;3.03;;;;;;;7.58;77.51;98837.47;4191284;28;20036;-63
2022/11/22 06:05:09;;;;;;;10.32;2.58;;;;;;;7.66;77.16;98843.50;4186271;28;20047;-63
2022/11/22 06:07:12;;;;;;;8.73;2.20;;;;;;;7.62;76.78;98841.78;4192122;28;20032;-63
2022/11/22 06:09:15;;;;;;;13.93;3.20;;;;;;;7.60;77.06;98843.50;4191811;28;20410;-63
2022/11/22 06:11:19;;;;;;;13.20;3.10;;;;;;;7.64;76.99;98848.69;4187719;28;20033;-63
2022/11/22 06:13:22;;;;;;;9.20;2.55;;;;;;;7.68;77.05;98846.94;4184604;28;20036;-62
2022/11/22 06:15:26;;;;;;;11.63;2.67;;;;;;;7.78;76.98;98850.41;4190420;28;20044;-62
2022/11/22 06:17:29;;;;;;;9.00;2.65;;;;;;;7.81;77.26;98850.41;4188870;28;20068;-62
2022/11/22 06:19:32;;;;;;;14.05;3.38;;;;;;;7.87;76.88;98850.41;4191958;28;20475;-62
2022/11/22 06:21:35;;;;;;;14.15;2.65;;;;;;;7.89;77.15;98848.66;4198154;28;20118;-62
2022/11/22 06:23:38;;;;;;;12.48;2.50;;;;;;;7.90;76.82;98845.22;4181935;28;20044;-63
2022/11/22 06:25:40;;;;;;;12.98;3.00;;;;;;;7.89;76.82;98851.25;4182823;28;20029;-62
2022/11/22 06:27:43;;;;;;;11.65;2.47;;;;;;;7.91;76.84;98849.53;4183005;28;20041;-64
2022/11/22 06:29:46;;;;;;;15.82;3.00;;;;;;;7.91;76.37;98857.28;4183124;28;20501;-63
2022/11/22 06:31:50;;;;;;;13.32;2.90;;;;;;;7.88;76.65;98853.84;4181547;28;20044;-63
2022/11/22 06:33:55;;;;;;;11.60;2.90;;;;;;;7.88;76.64;98862.47;4181631;28;20059;-63
2022/11/22 06:36:01;;;;;;;13.20;2.92;;;;;;;7.93;75.78;98862.47;4188379;28;20566;-63
2022/11/22 06:38:04;;;;;;;15.50;3.20;;;;;;;7.85;76.13;98868.50;4189714;28;20049;-63
2022/11/22 06:40:10;;;;;;;9.77;3.22;;;;;;;7.89;76.21;98868.53;4189730;28;20029;-63
2022/11/22 06:42:13;;;;;;;8.73;2.63;;;;;;;7.85;76.50;98883.16;4189409;28;20533;-63
2022/11/22 06:44:16;;;;;;;11.93;2.47;;;;;;;7.86;76.46;98882.31;4188833;28;20127;-63
2022/11/22 06:46:22;;;;;;;11.82;3.35;;;;;;;7.88;76.24;98893.50;4186814;28;20033;-63
2022/11/22 06:48:28;;;;;;;12.15;2.50;;;;;;;7.86;76.38;98892.66;4190629;28;20128;-63
2022/11/22 06:50:31;;;;;;;13.90;3.17;;;;;;;7.79;75.65;98893.53;4183245;28;20522;-63
2022/11/22 06:52:34;;;;;;;14.60;2.60;;;;;;;7.74;76.32;98898.69;4190227;28;20037;-63
2022/11/22 06:54:37;;;;;;;8.95;2.53;;;;;;;7.71;76.01;98900.41;4187524;28;20037;-63
2022/11/22 06:56:41;;;;;;;16.40;4.25;;;;;;;7.82;75.75;98904.72;4193582;28;20047;-63
2022/11/22 06:58:44;;;;;;;17.80;4.30;;;;;;;7.83;75.56;98905.59;4192306;28;20044;-63
2022/11/22 07:00:47;;;;;;;14.55;3.15;;;;;;;7.82;75.55;98909.03;4184339;28;20033;-63
2022/11/22 07:02:50;;;;;;;17.05;2.67;;;;;;;7.87;75.65;98917.69;4187833;28;20040;-63
2022/11/22 07:04:54;;;;;;;10.50;3.13;;;;;;;7.82;75.15;98916.81;4191567;28;20083;-63
2022/11/22 07:07:17;;;;;;;16.80;4.05;;;;;;;7.73;75.50;98919.41;4187891;28;20461;-63
2022/11/22 07:09:20;;;;;;;15.85;3.03;;;;;;;7.79;74.97;98919.41;4182707;28;20029;-63
2022/11/22 07:11:24;;;;;;;13.13;3.13;;;;;;;7.73;75.06;98916.81;4189646;28;20040;-63
2022/11/22 07:13:27;;;;;;;13.18;2.30;;;;;;;7.71;75.66;98918.50;4189757;28;20253;-63
2022/11/22 07:15:30;;;;;;;12.50;2.80;;;;;;;7.77;75.60;98926.28;4182239;28;20063;-63
2022/11/22 07:17:32;;;;;;;11.30;3.00;;;;;;;7.78;75.87;98928.00;4184261;28;20037;-63
2022/11/22 07:19:35;;;;;;;15.88;3.60;;;;;;;7.82;75.58;98929.75;4188539;28;20536;-64
2022/11/22 07:21:39;;;;;;;19.85;4.63;;;;;;;7.89;74.76;98926.28;4188148;28;20061;-63
2022/11/22 07:23:44;;;;;;;14.65;3.72;;;;;;;7.94;74.78;98931.47;4188271;28;20036;-63
2022/11/22 07:25:47;;;;;;;;;;;;;;;7.83;75.33;98928.88;4191700;28;20044;-63
2022/11/22 07:27:52;;;;;;;7.63;2.40;;;;;;;7.90;74.50;98930.63;4189711;28;19921;-63
2022/11/22 07:29:54;;;;;;;8.25;2.80;;;;;;;7.74;74.71;98929.75;4191023;28;20055;-63
2022/11/22 07:31:57;;;;;;;15.07;2.63;;;;;;;7.76;74.75;98932.31;4189161;28;20041;-63
2022/11/22 07:34:00;;;;;;;12.32;2.70;;;;;;;7.73;75.35;98940.94;4187735;28;20045;-63
2022/11/22 07:36:05;;;;;;;13.63;2.35;;;;;;;7.81;75.37;98954.75;4183091;28;20037;-63
2022/11/22 07:38:10;;;;;;;19.92;3.17;;;;;;;7.85;75.37;98956.47;4189823;28;20045;-63
2022/11/22 07:40:13;;;;;;;10.32;2.90;;;;;;;7.88;75.40;98959.94;4173545;28;20514;-63
2022/11/22 07:42:15;;;;;;;12.90;2.63;;;;;;;7.85;74.73;98961.63;4188587;28;20286;-64
2022/11/22 07:44:19;;;;;;;8.80;2.53;;;;;;;7.78;74.92;98970.28;4185885;28;20044;-63
2022/11/22 07:46:24;;;;;;;12.98;2.85;;;;;;;7.86;75.15;98967.69;4191678;28;20037;-64
2022/11/22 07:48:27;;;;;;;14.18;2.90;;;;;;;7.92;75.12;98970.28;4189429;28;20040;-63
2022/11/22 07:50:30;;;;;;;15.10;3.00;;;;;;;7.86;74.58;98967.69;4186492;28;20139;-63
2022/11/22 07:52:34;;;;;;;10.38;3.20;;;;;;;7.85;74.90;98959.03;4188914;28;20050;-63
2022/11/22 07:54:38;;;;;;;11.18;3.33;;;;;;;7.81;74.13;98966.81;4181345;28;20049;-63
2022/11/22 07:56:41;;;;;;;8.98;2.45;;;;;;;7.84;73.98;98969.41;4182479;28;20132;-63
2022/11/22 07:58:44;;;;;;;10.52;2.45;;;;;;;7.82;74.47;98974.56;4189175;28;20052;-63
2022/11/22 08:00:46;;;;;;;11.15;2.50;;;;;;;7.99;73.74;98984.09;4190035;28;20461;-63
2022/11/22 08:02:49;;;;;;;11.02;2.80;;;;;;;7.84;73.89;98979.75;4189558;28;20383;-63
2022/11/22 08:04:52;;;;;;;10.82;2.38;;;;;;;7.81;73.84;98982.34;4187234;28;20082;-63
2022/11/22 08:06:55;;;;;;;13.05;2.42;;;;;;;7.81;74.27;98990.09;4188764;28;20495;-63
2022/11/22 08:08:58;;;;;;;11.00;2.50;;;;;;;7.83;74.07;98988.38;4189452;28;20041;-63
2022/11/22 08:11:06;;;;;;;12.63;2.63;;;;;;;7.80;73.90;98990.97;4174900;28;20135;-63
2022/11/22 08:13:09;;;;;;;13.98;3.05;;;;;;;7.82;73.75;98997.00;4189607;28;20040;-62
2022/11/22 08:15:14;;;;;;;11.02;2.88;;;;;;;7.88;74.29;98996.16;4186074;28;20041;-63
2022/11/22 08:17:17;;;;;;;12.93;2.70;;;;;;;7.82;74.38;99004.75;4197673;28;20564;-62
2022/11/22 08:19:20;;;;;;;11.98;2.40;;;;;;;7.82;74.24;99005.63;4197622;28;20498;-64
2022/11/22 08:21:23;;;;;;;11.25;2.72;;;;;;;8.02;73.74;99013.41;4197660;28;20048;-62
2022/11/22 08:23:25;;;;;;;15.48;3.42;;;;;;;7.97;73.81;99012.56;4196630;28;20094;-62
2022/11/22 08:25:28;;;;;;;11.55;2.80;;;;;;;7.90;74.45;99013.41;4195144;28;20123;-62
2022/11/22 08:27:32;;;;;;;11.70;3.03;;;;;;;7.89;73.87;99003.91;4197023;28;20041;-63
2022/11/22 08:29:35;;;;;;;10.73;2.90;;;;;;;7.86;73.36;99011.69;4180227;28;20037;-63
2022/11/22 08:31:39;;;;;;;14.55;3.35;;;;;;;7.89;73.56;99009.09;4189302;28;20048;-63
2022/11/22 08:33:42;;;;;;;13.50;2.35;;;;;;;7.98;73.33;99014.28;4180176;28;20041;-63
2022/11/22 08:35:51;;;;;;;13.52;2.80;;;;;;;8.12;72.11;99006.53;4179603;28;20123;-63
2022/11/22 08:37:57;;;;;;;11.50;2.13;;;;;;;8.02;72.18;99009.97;4181102;28;20052;-63
2022/11/22 08:40:00;;;;;;;10.07;2.65;;;;;;;8.07;72.28;99004.78;4180554;28;20052;-63
2022/11/22 08:42:05;;;;;;;15.00;3.25;;;;;;;7.97;72.26;99012.56;4180858;28;20045;-63
2022/11/22 08:44:09;;;;;;;10.27;1.90;;;;;;;8.06;72.41;99016.00;4181820;28;20090;-63
2022/11/22 08:46:12;;;;;;;11.88;2.20;;;;;;;8.01;72.34;99005.66;4181251;28;20114;-63
2022/11/22 08:48:15;;;;;;;17.30;3.35;;;;;;;8.09;72.07;99010.81;4181652;28;20380;-63
2022/11/22 08:50:24;;;;;;;6.63;1.88;;;;;;;7.93;71.59;99008.25;4183146;28;20123;-63
2022/11/22 08:52:26;;;;;;;8.63;2.83;;;;;;;7.99;72.21;99005.66;4188680;28;20066;-63
2022/11/22 08:54:29;;;;;;;10.02;2.53;;;;;;;8.06;72.51;99013.41;4200848;28;20498;-62
2022/11/22 08:56:39;;;;;;;10.05;2.03;;;;;;;8.05;72.41;99009.97;4195766;28;20498;-63
2022/11/22 08:58:42;;;;;;;10.27;2.13;;;;;;;8.11;72.52;99012.56;4195895;28;20568;-62
2022/11/22 09:00:47;;;;;;;11.07;2.47;;;;;;;8.30;71.89;99013.44;4197130;28;20552;-63
2022/11/22 09:02:50;;;;;;;9.25;2.13;;;;;;;8.17;71.71;99019.47;4185023;28;20041;-63
2022/11/22 09:04:55;;;;;;;9.27;1.90;;;;;;;8.14;72.12;99016.88;4186936;28;20395;-63
2022/11/22 09:06:59;;;;;;;9.95;2.40;;;;;;;8.08;71.96;99015.16;4197052;28;20049;-63
2022/11/22 09:09:22;;;;;;;7.55;2.13;;;;;;;8.13;71.69;99018.63;4188065;28;20033;-63
2022/11/22 09:11:39;;;;;;;7.78;2.30;;;;;;;8.23;71.03;99014.28;4190661;28;20029;-62
2022/11/22 09:13:43;;;;;;;11.43;2.33;;;;;;;8.26;71.13;99009.09;4179778;28;20518;-62
2022/11/22 09:15:47;;;;;;;11.05;2.80;;;;;;;8.20;70.84;99002.19;4180544;28;20459;-62
2022/11/22 09:17:50;;;;;;;10.68;1.77;;;;;;;8.17;70.84;99003.94;4180523;28;20506;-62
2022/11/22 09:19:52;;;;;;;10.65;2.70;;;;;;;8.18;71.17;99003.94;4194151;28;20506;-62
2022/11/22 09:21:55;;;;;;;9.27;2.53;;;;;;;8.23;71.00;99003.94;4200331;28;20517;-62
2022/11/22 09:23:58;;;;;;;11.98;2.63;;;;;;;8.30;70.64;99004.81;4199537;28;20040;-62
2022/11/22 09:26:05;;;;;;;12.40;2.78;;;;;;;8.26;71.22;99014.28;4192452;28;20069;-63
2022/11/22 09:28:08;;;;;;;15.60;3.25;;;;;;;8.44;70.69;99010.88;4197643;28;20048;-63
2022/11/22 09:30:11;;;;;;;7.82;1.63;;;;;;;8.33;71.21;99013.44;4192889;28;20044;-62
2022/11/22 09:32:16;;;;;;;10.23;2.58;;;;;;;8.30;70.92;99010.00;4192040;28;20045;-62
2022/11/22 09:34:19;;;;;;;15.68;2.80;;;;;;;8.39;71.22;99018.59;4191172;28;20040;-61
2022/11/22 09:36:25;;;;;;;9.55;2.45;;;;;;;8.45;71.50;99025.53;4168763;28;20047;-60
2022/11/22 09:38:28;;;;;;;12.27;2.85;;;;;;;8.44;70.20;99020.31;4195034;28;20098;-64
2022/11/22 09:40:30;;;;;;;9.60;2.38;;;;;;;8.36;70.41;99018.59;4194548;28;20039;-64
2022/11/22 09:43:11;;;;;;;7.95;2.08;;;;;;;8.45;70.87;99014.31;4189186;28;20037;-64
2022/11/22 09:45:41;;;;;;;13.07;2.35;;;;;;;8.46;70.41;99003.13;4183158;28;20037;-65
2022/11/22 09:47:56;;;;;;;12.45;2.47;;;;;;;8.45;70.62;98988.44;4172699;28;20049;-66
2022/11/22 09:50:10;;;;;;;9.50;2.25;;;;;;;8.48;70.61;98998.78;4190155;28;20098;-65
2022/11/22 09:52:20;;;;;;;8.02;2.25;;;;;;;8.31;70.34;98997.03;4187481;28;20059;-63
2022/11/22 09:54:27;;;;;;;9.88;2.58;;;;;;;8.32;70.08;98991.00;4190277;28;20045;-69
2022/11/22 09:56:30;;;;;;;12.80;2.35;;;;;;;8.40;69.22;98991.00;4195791;28;20087;-65
2022/11/22 09:58:39;;;;;;;7.40;2.13;;;;;;;8.38;69.70;98991.00;4191592;28;20036;-67